Pacific Grove, California
Current Conditions -  °F | °C
As of 5:54 AM on Thursday 30 Oct 2014 (Local Time) from KMRY Reporting Station
Clear Clear  
Wind Chill: 60°   Ceiling: Unl
Heat Index: 60°   Visibility: 10mi
Dew Point: 43°   Wind: 3mph
Humidity: 53%   Direction: 70°ENE
Pressure: 29.93"   Gusts: NA
Location:  36.62°N, 121.91°W
Report Text: KMRY 301254Z 07003KT 10SM CLR 16/06 A2993 RMK AO2 SLP145 T01560061
Loading
Personal Weather Stations






























Interactive Weather Map
Tropical Storm Tracking
New forecast layout! Learn more

10-Day Weather Forecast

Advertisements
Track Severe Weather on mobile